Terminal Aerodrome Forecast
Issued by NWS Wilmington, OH

Current Version | Previous Version | Text Only | Print | Product List | Glossary Off
Versions: 1 2 3 4 5 6 7 8 9 10 11 12 13 14 15 16 17 18 19 20 21

000
FTUS41 KILN 201136
TAFDAY
TAF
KDAY 201136Z 2012/2112 23004KT 1/4SM FG VV002
     FM201400 VRB03KT 1/2SM FG BKN015
     FM201500 14004KT 1SM BR BKN035
     FM201600 14006KT P6SM BKN070
     FM201700 14007KT P6SM BKN070
     FM210200 13004KT P6SM BKN250
     FM210800 17007KT P6SM BKN200=

USA.gov is the U.S. government's official web portal to all federal, state and local government web resources and services.